sensor_id;sensor_type;location;lat;lon;timestamp;P1;durP1;ratioP1;P2;durP2;ratioP2
9506;SDS011;4791;47.528;9.372;2023-08-07T00:09:53;3.00;;;1.58;;
9506;SDS011;4791;47.528;9.372;2023-08-07T00:24:53;5.27;;;1.63;;
9506;SDS011;4791;47.528;9.372;2023-08-07T00:39:54;3.55;;;1.30;;
9506;SDS011;4791;47.528;9.372;2023-08-07T00:54:56;2.40;;;1.30;;
9506;SDS011;4791;47.528;9.372;2023-08-07T01:09:57;3.03;;;1.30;;
9506;SDS011;4791;47.528;9.372;2023-08-07T01:25:03;3.67;;;1.40;;
9506;SDS011;4791;47.528;9.372;2023-08-07T01:40:06;3.37;;;1.43;;
9506;SDS011;4791;47.528;9.372;2023-08-07T01:55:07;2.30;;;1.30;;
9506;SDS011;4791;47.528;9.372;2023-08-07T02:10:07;4.15;;;1.50;;
9506;SDS011;4791;47.528;9.372;2023-08-07T02:25:08;2.45;;;1.30;;
9506;SDS011;4791;47.528;9.372;2023-08-07T02:40:09;2.93;;;1.63;;
9506;SDS011;4791;47.528;9.372;2023-08-07T02:55:10;3.10;;;1.53;;
9506;SDS011;4791;47.528;9.372;2023-08-07T03:10:11;3.88;;;1.50;;
9506;SDS011;4791;47.528;9.372;2023-08-07T03:25:14;3.90;;;1.50;;
9506;SDS011;4791;47.528;9.372;2023-08-07T03:40:20;2.93;;;1.50;;
9506;SDS011;4791;47.528;9.372;2023-08-07T03:55:20;3.53;;;1.20;;
9506;SDS011;4791;47.528;9.372;2023-08-07T04:10:20;2.43;;;1.40;;
9506;SDS011;4791;47.528;9.372;2023-08-07T04:25:21;2.83;;;1.70;;
9506;SDS011;4791;47.528;9.372;2023-08-07T04:40:21;1.88;;;1.20;;
9506;SDS011;4791;47.528;9.372;2023-08-07T04:55:22;2.10;;;1.00;;
9506;SDS011;4791;47.528;9.372;2023-08-07T05:10:22;2.67;;;1.25;;
9506;SDS011;4791;47.528;9.372;2023-08-07T05:25:25;3.00;;;1.40;;
9506;SDS011;4791;47.528;9.372;2023-08-07T05:40:25;3.27;;;1.27;;
9506;SDS011;4791;47.528;9.372;2023-08-07T05:55:26;4.03;;;1.50;;
9506;SDS011;4791;47.528;9.372;2023-08-07T06:10:29;3.27;;;1.33;;
9506;SDS011;4791;47.528;9.372;2023-08-07T06:25:30;2.77;;;1.30;;
9506;SDS011;4791;47.528;9.372;2023-08-07T06:40:30;3.22;;;1.20;;
9506;SDS011;4791;47.528;9.372;2023-08-07T06:55:33;7.13;;;1.20;;
9506;SDS011;4791;47.528;9.372;2023-08-07T07:10:33;2.60;;;1.07;;
9506;SDS011;4791;47.528;9.372;2023-08-07T07:25:36;2.03;;;1.13;;
9506;SDS011;4791;47.528;9.372;2023-08-07T07:40:36;2.67;;;1.20;;
9506;SDS011;4791;47.528;9.372;2023-08-07T07:55:37;1.90;;;1.00;;
9506;SDS011;4791;47.528;9.372;2023-08-07T08:10:38;2.30;;;1.00;;
9506;SDS011;4791;47.528;9.372;2023-08-07T08:25:38;1.90;;;1.10;;
9506;SDS011;4791;47.528;9.372;2023-08-07T08:40:39;2.22;;;1.20;;
9506;SDS011;4791;47.528;9.372;2023-08-07T08:55:40;2.80;;;1.00;;
9506;SDS011;4791;47.528;9.372;2023-08-07T09:10:42;2.30;;;1.10;;
9506;SDS011;4791;47.528;9.372;2023-08-07T09:25:43;1.60;;;0.90;;
9506;SDS011;4791;47.528;9.372;2023-08-07T09:40:44;1.53;;;0.70;;
9506;SDS011;4791;47.528;9.372;2023-08-07T09:55:44;2.40;;;0.80;;
9506;SDS011;4791;47.528;9.372;2023-08-07T10:10:47;1.30;;;0.80;;
9506;SDS011;4791;47.528;9.372;2023-08-07T10:25:48;1.50;;;0.60;;
9506;SDS011;4791;47.528;9.372;2023-08-07T10:56:03;6.13;;;1.10;;
9506;SDS011;4791;47.528;9.372;2023-08-07T11:11:10;2.30;;;0.87;;
9506;SDS011;4791;47.528;9.372;2023-08-07T11:26:12;2.60;;;1.00;;
9506;SDS011;4791;47.528;9.372;2023-08-07T11:41:14;2.67;;;0.93;;
9506;SDS011;4791;47.528;9.372;2023-08-07T11:56:16;4.17;;;1.47;;
9506;SDS011;4791;47.528;9.372;2023-08-07T12:11:19;3.40;;;1.40;;
9506;SDS011;4791;47.528;9.372;2023-08-07T12:26:21;2.58;;;1.20;;
9506;SDS011;4791;47.528;9.372;2023-08-07T12:41:21;2.15;;;1.15;;
9506;SDS011;4791;47.528;9.372;2023-08-07T12:56:21;2.25;;;1.20;;
9506;SDS011;4791;47.528;9.372;2023-08-07T13:11:22;2.13;;;1.13;;
9506;SDS011;4791;47.528;9.372;2023-08-07T13:26:25;1.90;;;0.97;;
9506;SDS011;4791;47.528;9.372;2023-08-07T13:41:25;4.20;;;1.63;;
9506;SDS011;4791;47.528;9.372;2023-08-07T13:56:26;1.90;;;1.00;;
9506;SDS011;4791;47.528;9.372;2023-08-07T14:11:29;1.70;;;1.07;;
9506;SDS011;4791;47.528;9.372;2023-08-07T14:26:32;1.93;;;1.00;;
9506;SDS011;4791;47.528;9.372;2023-08-07T14:41:33;1.90;;;0.50;;
9506;SDS011;4791;47.528;9.372;2023-08-07T14:56:33;1.40;;;0.80;;
9506;SDS011;4791;47.528;9.372;2023-08-07T15:11:36;1.03;;;0.63;;
9506;SDS011;4791;47.528;9.372;2023-08-07T15:26:36;1.97;;;0.87;;
9506;SDS011;4791;47.528;9.372;2023-08-07T15:41:37;2.17;;;0.77;;
9506;SDS011;4791;47.528;9.372;2023-08-07T15:56:37;1.47;;;0.73;;
9506;SDS011;4791;47.528;9.372;2023-08-07T16:11:37;1.50;;;0.63;;
9506;SDS011;4791;47.528;9.372;2023-08-07T16:26:38;1.75;;;0.50;;
9506;SDS011;4791;47.528;9.372;2023-08-07T16:41:38;1.47;;;0.60;;
9506;SDS011;4791;47.528;9.372;2023-08-07T16:56:40;1.07;;;0.70;;
9506;SDS011;4791;47.528;9.372;2023-08-07T17:11:41;1.17;;;0.60;;
9506;SDS011;4791;47.528;9.372;2023-08-07T17:26:43;1.53;;;0.67;;
9506;SDS011;4791;47.528;9.372;2023-08-07T17:41:46;2.05;;;0.85;;
9506;SDS011;4791;47.528;9.372;2023-08-07T17:56:47;2.60;;;0.80;;
9506;SDS011;4791;47.528;9.372;2023-08-07T18:11:49;1.33;;;0.80;;
9506;SDS011;4791;47.528;9.372;2023-08-07T18:26:49;2.45;;;0.80;;
9506;SDS011;4791;47.528;9.372;2023-08-07T18:41:49;1.80;;;0.95;;
9506;SDS011;4791;47.528;9.372;2023-08-07T18:56:50;1.53;;;0.90;;
9506;SDS011;4791;47.528;9.372;2023-08-07T19:11:55;2.03;;;0.88;;
9506;SDS011;4791;47.528;9.372;2023-08-07T19:26:55;1.40;;;0.70;;
9506;SDS011;4791;47.528;9.372;2023-08-07T19:41:55;1.45;;;0.77;;
9506;SDS011;4791;47.528;9.372;2023-08-07T19:56:56;2.37;;;1.10;;
9506;SDS011;4791;47.528;9.372;2023-08-07T20:11:58;2.73;;;1.10;;
9506;SDS011;4791;47.528;9.372;2023-08-07T20:26:59;3.97;;;1.60;;
9506;SDS011;4791;47.528;9.372;2023-08-07T20:42:01;2.13;;;1.00;;
9506;SDS011;4791;47.528;9.372;2023-08-07T20:57:04;1.97;;;0.93;;
9506;SDS011;4791;47.528;9.372;2023-08-07T21:12:05;2.00;;;1.00;;
9506;SDS011;4791;47.528;9.372;2023-08-07T21:27:07;2.10;;;1.00;;
9506;SDS011;4791;47.528;9.372;2023-08-07T21:42:08;1.87;;;0.90;;
9506;SDS011;4791;47.528;9.372;2023-08-07T21:57:08;2.50;;;1.10;;
9506;SDS011;4791;47.528;9.372;2023-08-07T22:12:08;2.15;;;1.00;;
9506;SDS011;4791;47.528;9.372;2023-08-07T22:27:09;1.87;;;1.00;;
9506;SDS011;4791;47.528;9.372;2023-08-07T22:42:09;2.00;;;1.20;;
9506;SDS011;4791;47.528;9.372;2023-08-07T22:57:10;6.20;;;1.70;;
9506;SDS011;4791;47.528;9.372;2023-08-07T23:12:10;3.23;;;1.20;;
9506;SDS011;4791;47.528;9.372;2023-08-07T23:27:13;2.60;;;1.10;;
9506;SDS011;4791;47.528;9.372;2023-08-07T23:42:16;1.77;;;1.10;;
9506;SDS011;4791;47.528;9.372;2023-08-07T23:57:16;2.90;;;0.98;;
